Time;durP1;ratioP1;P1;durP2;ratioP2;P2;SDS_P1;SDS_P2;PMS_P1;PMS_P2;Temp;Humidity;BMP_temperature;BMP_pressure;BME280_temperature;BME280_humidity;BME280_pressure;Samples;Min_cycle;Max_cycle;Signal;HPM_P1;HPM_P2
2023/09/07 00:01:10;;;;;;;;;;;;;;;21.54;67.81;100135.09;3162246;28;19996;-73
2023/09/07 00:02:42;;;;;;;;;;;;;;;21.50;68.11;100123.09;3170408;28;20412;-73
2023/09/07 00:04:12;;;;;;;;;;;;;;;21.56;67.87;100138.44;3170716;28;19943;-73
2023/09/07 00:05:45;;;;;;;;;;;;;;;21.57;67.71;100137.47;3165121;28;20413;-75
2023/09/07 00:07:16;;;;;;;;;;;;;;;21.57;67.62;100140.13;3170485;28;19988;-74
2023/09/07 00:08:48;;;;;;;;;;;;;;;21.58;67.72;100136.50;3170329;28;20413;-74
2023/09/07 00:10:18;;;;;;;;;;;;;;;21.57;67.53;100140.13;3159393;28;19931;-75
2023/09/07 00:11:50;;;;;;;;;;;;;;;21.58;67.68;100133.84;3170658;28;19927;-75
2023/09/07 00:13:20;;;;;;;;;;;;;;;21.61;67.61;100137.22;3164217;28;19981;-73
2023/09/07 00:14:52;;;;;;;;;;;;;;;21.62;67.16;100133.56;3166786;28;20022;-73
2023/09/07 00:16:22;;;;;;;;;;;;;;;21.65;67.40;100135.97;3167607;28;19931;-73
2023/09/07 00:17:54;;;;;;;;;;;;;;;21.62;67.08;100137.06;3170571;28;19924;-75
2023/09/07 00:19:25;;;;;;;;;;;;;;;21.64;67.19;100137.78;3170368;28;20289;-73
2023/09/07 00:20:58;;;;;;;;;;;;;;;21.65;67.05;100144.78;3168525;28;20301;-78
2023/09/07 00:22:29;;;;;;;;;;;;;;;21.66;67.19;100141.16;3170512;28;19928;-79
2023/09/07 00:24:05;;;;;;;;;;;;;;;21.67;66.87;100147.28;3170378;28;19927;-78
2023/09/07 00:25:37;;;;;;;;;;;;;;;21.66;66.83;100146.44;3170631;28;19936;-78
2023/09/07 00:27:07;;;;;;;;;;;;;;;21.66;66.61;100142.97;3170254;28;19928;-77
2023/09/07 00:28:39;;;;;;;;;;;;;;;21.63;66.55;100149.34;3167622;28;19924;-76
2023/09/07 00:30:10;;;;;;;;;;;;;;;21.60;66.92;100144.31;3160333;28;20392;-77
2023/09/07 00:31:41;;;;;;;;;;;;;;;21.60;66.72;100143.50;3168964;28;19924;-76
2023/09/07 00:33:12;;;;;;;;;;;;;;;21.60;66.68;100144.31;3158919;28;20023;-77
2023/09/07 00:34:43;;;;;;;;;;;;;;;21.60;66.48;100144.31;3170966;28;19924;-78
2023/09/07 00:36:15;;;;;;;;;;;;;;;21.59;66.55;100142.63;3158836;28;19928;-77
2023/09/07 00:37:47;;;;;;;;;;;;;;;21.57;66.00;100140.13;3169477;28;19930;-77
2023/09/07 00:39:17;;;;;;;;;;;;;;;21.57;66.17;100137.47;3170046;28;20385;-78
2023/09/07 00:40:49;;;;;;;;;;;;;;;21.57;65.67;100142.78;3168767;28;19976;-77
2023/09/07 00:42:20;;;;;;;;;;;;;;;21.59;65.84;100137.31;3166464;28;19931;-77
2023/09/07 00:43:51;;;;;;;;;;;;;;;21.58;65.69;100136.50;3172104;28;20424;-78
2023/09/07 00:45:22;;;;;;;;;;;;;;;21.60;65.76;100140.84;3160791;28;19924;-77
2023/09/07 00:46:54;;;;;;;;;;;;;;;21.58;65.53;100139.13;3164871;28;20431;-77
2023/09/07 00:48:25;;;;;;;;;;;;;;;21.57;65.35;100140.13;3171725;28;19936;-78
2023/09/07 00:49:56;;;;;;;;;;;;;;;21.58;65.37;100144.44;3170097;28;19939;-77
2023/09/07 00:51:29;;;;;;;;;;;;;;;21.58;65.47;100141.78;3162346;28;19924;-77
2023/09/07 00:53:00;;;;;;;;;;;;;;;21.60;65.16;100144.31;3170987;28;19928;-77
2023/09/07 00:54:32;;;;;;;;;;;;;;;21.60;65.32;100140.84;3171215;28;19938;-76
2023/09/07 00:56:03;;;;;;;;;;;;;;;21.63;65.41;100137.91;3159746;28;19931;-76
2023/09/07 00:57:35;;;;;;;;;;;;;;;21.61;65.38;100139.84;3170242;28;19924;-77
2023/09/07 00:59:07;;;;;;;;;;;;;;;21.61;65.06;100139.84;3167507;28;19935;-78
2023/09/07 01:00:38;;;;;;;;;;;;;;;21.61;65.03;100137.22;3163368;28;19932;-78
2023/09/07 01:02:09;;;;;;;;;;;;;;;21.60;64.98;100133.72;3169957;28;19942;-78
2023/09/07 01:03:41;;;;;;;;;;;;;;;21.61;64.94;100134.56;3169585;28;19924;-77
2023/09/07 01:05:11;;;;;;;;;;;;;;;21.60;64.85;100136.38;3167913;28;19928;-77
2023/09/07 01:06:48;;;;;;;;;;;;;;;21.62;65.01;100133.56;3167389;28;19924;-77
2023/09/07 01:08:23;;;;;;;;;;;;;;;21.63;64.90;100132.63;3170333;28;19932;-76
2023/09/07 01:09:58;;;;;;;;;;;;;;;21.61;64.52;100129.25;3162199;28;19924;-77
2023/09/07 01:11:35;;;;;;;;;;;;;;;21.59;64.41;100129.38;3166561;28;20595;-75
2023/09/07 01:13:07;;;;;;;;;;;;;;;21.60;64.53;100127.59;3166390;28;20294;-75
2023/09/07 01:14:37;;;;;;;;;;;;;;;21.57;64.63;100123.38;3165442;28;20293;-75
2023/09/07 01:16:10;;;;;;;;;;;;;;;21.56;64.53;100130.50;3169796;28;20077;-76
2023/09/07 01:17:41;;;;;;;;;;;;;;;21.57;64.31;100126.03;3169942;28;19931;-76
2023/09/07 01:19:12;;;;;;;;;;;;;;;21.57;64.16;100132.16;3169802;28;19928;-76
2023/09/07 01:20:44;;;;;;;;;;;;;;;21.58;64.42;100130.34;3167233;28;19924;-75
2023/09/07 01:22:17;;;;;;;;;;;;;;;21.59;64.08;100118.78;3170173;28;19927;-76
2023/09/07 01:23:48;;;;;;;;;;;;;;;21.60;64.17;100127.59;3170086;28;19924;-75
2023/09/07 01:25:20;;;;;;;;;;;;;;;21.61;64.13;100134.56;3165172;28;19928;-74
2023/09/07 01:26:51;;;;;;;;;;;;;;;21.57;64.31;100129.53;3170246;28;19924;-75
2023/09/07 01:28:23;;;;;;;;;;;;;;;21.60;64.29;100127.59;3165866;28;19931;-75
2023/09/07 01:29:54;;;;;;;;;;;;;;;21.61;63.96;100123.94;3169738;28;19931;-75
2023/09/07 01:31:25;;;;;;;;;;;;;;;21.61;64.24;100127.44;3170327;28;19932;-75
2023/09/07 01:32:56;;;;;;;;;;;;;;;21.64;64.11;100129.00;3169815;28;19928;-75
2023/09/07 01:34:28;;;;;;;;;;;;;;;21.61;64.42;100126.59;3170101;28;19928;-75
2023/09/07 01:35:58;;;;;;;;;;;;;;;21.56;64.93;100124.34;3160045;28;19928;-75
2023/09/07 01:37:31;;;;;;;;;;;;;;;21.50;65.26;100130.16;3167367;28;19991;-75
2023/09/07 01:39:03;;;;;;;;;;;;;;;21.48;65.76;100129.47;3169956;28;19935;-75
2023/09/07 01:40:34;;;;;;;;;;;;;;;21.45;66.04;100122.63;3170109;28;19935;-76
2023/09/07 01:42:05;;;;;;;;;;;;;;;21.43;65.92;100137.81;3169860;28;20397;-73
2023/09/07 01:43:37;;;;;;;;;;;;;;;21.37;66.38;100133.03;3165526;28;19928;-72
2023/09/07 01:45:09;;;;;;;;;;;;;;;21.33;66.87;100134.25;3170101;28;19942;-74
2023/09/07 01:46:40;;;;;;;;;;;;;;;21.29;67.13;100130.16;3169714;28;19935;-74
2023/09/07 01:48:12;;;;;;;;;;;;;;;21.27;67.13;100127.66;3169678;28;19923;-73
2023/09/07 01:49:42;;;;;;;;;;;;;;;21.26;67.13;100133.06;3169868;28;20014;-73
2023/09/07 01:51:14;;;;;;;;;;;;;;;21.23;67.64;100135.97;3160853;28;20266;-73
2023/09/07 01:52:48;;;;;;;;;;;;;;;21.20;67.92;100131.78;3169300;28;19934;-73
2023/09/07 01:54:20;;;;;;;;;;;;;;;21.18;68.17;100136.38;3169885;28;19924;-73
2023/09/07 01:55:54;;;;;;;;;;;;;;;21.18;68.08;100132.88;3169931;28;19946;-74
2023/09/07 01:57:26;;;;;;;;;;;;;;;21.18;68.12;100127.56;3165167;28;19928;-73
2023/09/07 01:58:56;;;;;;;;;;;;;;;21.18;68.25;100132.88;3144640;28;20398;-73
2023/09/07 02:00:28;;;;;;;;;;;;;;;21.18;68.39;100131.09;3164130;28;19976;-73
2023/09/07 02:01:58;;;;;;;;;;;;;;;21.20;68.02;100133.59;3167420;28;19928;-73
2023/09/07 02:03:30;;;;;;;;;;;;;;;21.21;68.30;100127.31;3172194;28;19934;-73
2023/09/07 02:05:01;;;;;;;;;;;;;;;21.23;68.30;100130.69;3170378;28;20011;-72
2023/09/07 02:06:33;;;;;;;;;;;;;;;21.24;68.08;100127.91;3167894;28;19923;-72
2023/09/07 02:08:06;;;;;;;;;;;;;;;21.26;68.15;100133.06;3171878;28;19943;-74
2023/09/07 02:09:36;;;;;;;;;;;;;;;21.25;68.16;100134.88;3166152;28;20289;-76
2023/09/07 02:11:08;;;;;;;;;;;;;;;21.25;68.14;100129.59;3165519;28;19927;-76
2023/09/07 02:12:38;;;;;;;;;;;;;;;21.23;68.32;100134.16;3167799;28;20324;-76
2023/09/07 02:14:10;;;;;;;;;;;;;;;21.22;68.48;100127.19;3163733;27;19938;-77
2023/09/07 02:15:41;;;;;;;;;;;;;;;21.24;68.40;100137.66;3171847;28;19972;-76
2023/09/07 02:17:17;;;;;;;;;;;;;;;21.24;68.35;100135.84;3172363;28;19932;-76
2023/09/07 02:18:50;;;;;;;;;;;;;;;21.22;68.68;100136.94;3171874;28;19924;-76
2023/09/07 02:20:21;;;;;;;;;;;;;;;21.20;68.60;100133.59;3169984;28;19924;-77
2023/09/07 02:21:52;;;;;;;;;;;;;;;21.17;68.84;100137.31;3163801;28;19924;-77
2023/09/07 02:23:24;;;;;;;;;;;;;;;21.18;68.80;100143.47;3171789;28;19976;-77
2023/09/07 02:24:56;;;;;;;;;;;;;;;21.17;68.90;100142.63;3172049;28;19975;-77
2023/09/07 02:26:26;;;;;;;;;;;;;;;21.17;68.83;100142.63;3168712;28;19924;-76
2023/09/07 02:27:58;;;;;;;;;;;;;;;21.16;69.01;100140.13;3170415;28;19934;-78
2023/09/07 02:29:28;;;;;;;;;;;;;;;21.13;69.35;100139.41;3171741;28;19973;-76
2023/09/07 02:31:03;;;;;;;;;;;;;;;21.12;69.16;100139.53;3171782;27;19928;-75
2023/09/07 02:32:34;;;;;;;;;;;;;;;21.10;69.20;100141.47;3166738;28;19928;-75
2023/09/07 02:34:05;;;;;;;;;;;;;;;21.09;69.55;100134.50;3167223;28;19975;-76
2023/09/07 02:35:37;;;;;;;;;;;;;;;21.06;69.44;100140.91;3165668;28;19928;-76
2023/09/07 02:37:08;;;;;;;;;;;;;;;21.04;69.58;100142.00;3165304;28;19928;-76
2023/09/07 02:38:40;;;;;;;;;;;;;;;21.03;69.69;100135.84;3171666;28;19927;-76
2023/09/07 02:40:12;;;;;;;;;;;;;;;21.00;69.89;100127.31;3172140;28;19925;-76
2023/09/07 02:41:43;;;;;;;;;;;;;;;20.96;70.00;100129.38;3167284;28;19924;-76
2023/09/07 02:43:16;;;;;;;;;;;;;;;20.94;70.23;100135.75;3171702;28;20319;-77
2023/09/07 02:44:47;;;;;;;;;;;;;;;20.92;70.23;100127.97;3171940;28;19932;-79
2023/09/07 02:46:18;;;;;;;;;;;;;;;20.91;70.54;100131.56;3170867;28;19924;-77
2023/09/07 02:47:50;;;;;;;;;;;;;;;20.92;70.41;100130.59;3158473;28;19935;-76
2023/09/07 02:49:21;;;;;;;;;;;;;;;20.93;70.27;100134.09;3160165;28;19932;-76
2023/09/07 02:51:03;;;;;;;;;;;;;;;20.92;70.42;100132.41;3163406;28;19929;-75
2023/09/07 02:52:33;;;;;;;;;;;;;;;20.90;70.62;100128.06;3147917;28;19989;-76
2023/09/07 02:54:08;;;;;;;;;;;;;;;20.88;70.81;100132.69;3171156;28;21401;-76
2023/09/07 02:55:39;;;;;;;;;;;;;;;20.86;70.74;100125.81;3149550;28;19924;-75
2023/09/07 02:57:11;;;;;;;;;;;;;;;20.85;70.81;100126.78;3171791;28;19931;-76
2023/09/07 02:58:41;;;;;;;;;;;;;;;20.84;70.85;100131.22;3171856;28;20804;-76
2023/09/07 03:00:13;;;;;;;;;;;;;;;20.82;71.12;100124.38;3171694;28;19928;-76
2023/09/07 03:01:44;;;;;;;;;;;;;;;20.83;71.15;100128.72;3166639;28;19931;-77
2023/09/07 03:03:15;;;;;;;;;;;;;;;20.84;71.13;100133.03;3171739;28;20416;-77
2023/09/07 03:04:46;;;;;;;;;;;;;;;20.80;71.14;100129.81;3171473;28;19927;-77
2023/09/07 03:06:18;;;;;;;;;;;;;;;20.75;71.32;100139.09;3167595;28;19931;-77
2023/09/07 03:07:49;;;;;;;;;;;;;;;20.69;72.01;100132.50;3171469;28;20010;-77
2023/09/07 03:09:22;;;;;;;;;;;;;;;20.63;72.06;100127.72;3167545;28;19928;-77
2023/09/07 03:10:52;;;;;;;;;;;;;;;20.60;72.18;100136.75;3159224;28;20079;-77
2023/09/07 03:12:24;;;;;;;;;;;;;;;20.57;72.34;100138.81;3166289;28;19932;-77
2023/09/07 03:13:54;;;;;;;;;;;;;;;20.55;72.40;100132.78;3159773;28;20457;-77
2023/09/07 03:15:26;;;;;;;;;;;;;;;20.54;72.48;100131.94;3166086;28;20022;-77
2023/09/07 03:16:56;;;;;;;;;;;;;;;20.55;72.75;100141.56;3165893;28;20380;-76
2023/09/07 03:18:28;;;;;;;;;;;;;;;20.54;72.68;100139.88;3155206;28;19932;-75
2023/09/07 03:19:59;;;;;;;;;;;;;;;20.56;72.89;100139.78;3165737;28;19927;-77
2023/09/07 03:21:30;;;;;;;;;;;;;;;20.56;72.58;100143.25;3166336;28;19935;-77
2023/09/07 03:23:01;;;;;;;;;;;;;;;20.54;72.70;100145.19;3165875;28;19943;-77
2023/09/07 03:24:34;;;;;;;;;;;;;;;20.54;72.88;100147.81;3163577;28;20322;-78
2023/09/07 03:26:05;;;;;;;;;;;;;;;20.53;72.83;100142.66;3164164;28;19953;-78
2023/09/07 03:27:37;;;;;;;;;;;;;;;20.51;72.94;100145.41;3165467;28;20014;-77
2023/09/07 03:29:08;;;;;;;;;;;;;;;20.51;73.24;100140.09;3158640;28;19934;-78
2023/09/07 03:30:39;;;;;;;;;;;;;;;20.52;73.04;100140.94;3159924;28;20006;-78
2023/09/07 03:32:10;;;;;;;;;;;;;;;20.52;73.35;100147.09;3165814;28;19999;-78
2023/09/07 03:33:41;;;;;;;;;;;;;;;20.48;73.52;100140.34;3166066;28;20730;-78
2023/09/07 03:35:13;;;;;;;;;;;;;;;20.47;73.25;100143.97;3163385;28;19967;-78
2023/09/07 03:36:44;;;;;;;;;;;;;;;20.44;73.58;100141.59;3156696;28;19927;-77
2023/09/07 03:38:15;;;;;;;;;;;;;;;20.43;73.84;100153.09;3165874;28;19928;-77
2023/09/07 03:39:48;;;;;;;;;;;;;;;20.40;74.01;100159.47;3159565;28;19935;-76
2023/09/07 03:41:19;;;;;;;;;;;;;;;20.41;73.82;100160.34;3165240;28;19928;-76
2023/09/07 03:42:51;;;;;;;;;;;;;;;20.40;73.78;100154.19;3165287;28;20074;-76
2023/09/07 03:44:21;;;;;;;;;;;;;;;20.42;74.04;100156.72;3156218;28;19975;-76
2023/09/07 03:45:53;;;;;;;;;;;;;;;20.41;73.76;100161.19;3164700;28;19927;-77
2023/09/07 03:47:28;;;;;;;;;;;;;;;20.41;73.92;100163.81;3165796;28;19928;-78
2023/09/07 03:49:00;;;;;;;;;;;;;;;20.41;73.88;100168.28;3165238;28;20340;-76
2023/09/07 03:50:30;;;;;;;;;;;;;;;20.36;74.21;100166.00;3159900;28;20338;-76
2023/09/07 03:52:02;;;;;;;;;;;;;;;20.33;74.44;100163.59;3162600;28;19984;-76
2023/09/07 03:53:34;;;;;;;;;;;;;;;20.30;74.48;100160.38;3164876;28;19928;-76
2023/09/07 03:55:07;;;;;;;;;;;;;;;20.29;74.61;100166.59;3161047;28;20277;-77
2023/09/07 03:56:39;;;;;;;;;;;;;;;20.30;74.46;100163.00;3165368;28;20223;-76
2023/09/07 03:58:11;;;;;;;;;;;;;;;20.30;74.72;100168.28;3165157;28;20008;-77
2023/09/07 03:59:41;;;;;;;;;;;;;;;20.29;74.48;100169.25;3165144;28;20054;-77
2023/09/07 04:01:13;;;;;;;;;;;;;;;20.30;74.45;100170.94;3157973;28;19946;-76
2023/09/07 04:02:43;;;;;;;;;;;;;;;20.30;74.57;100176.22;3165549;28;19999;-77
2023/09/07 04:04:15;;;;;;;;;;;;;;;20.28;74.75;100175.50;3165467;28;19928;-76
2023/09/07 04:05:47;;;;;;;;;;;;;;;20.26;74.81;100173.00;3160179;28;19928;-76
2023/09/07 04:07:17;;;;;;;;;;;;;;;20.25;74.66;100173.09;3165404;28;19932;-73
2023/09/07 04:08:49;;;;;;;;;;;;;;;20.23;75.13;100168.78;3161165;28;19928;-76
2023/09/07 04:10:21;;;;;;;;;;;;;;;20.21;75.20;100170.69;3154061;28;20452;-76
2023/09/07 04:11:53;;;;;;;;;;;;;;;20.19;75.32;100172.63;3165550;28;19927;-77
2023/09/07 04:13:23;;;;;;;;;;;;;;;20.20;75.25;100176.97;3159153;28;19928;-76
2023/09/07 04:14:55;;;;;;;;;;;;;;;20.22;75.32;100174.19;3164266;28;19928;-79
2023/09/07 04:16:25;;;;;;;;;;;;;;;20.22;75.42;100177.66;3165108;28;19928;-75
2023/09/07 04:17:57;;;;;;;;;;;;;;;20.21;75.22;100181.28;3165305;28;20451;-73
2023/09/07 04:19:28;;;;;;;;;;;;;;;20.21;75.32;100178.63;3165374;28;19927;-75
2023/09/07 04:21:06;;;;;;;;;;;;;;;20.23;75.45;100174.06;3164043;28;20003;-73
2023/09/07 04:22:37;;;;;;;;;;;;;;;20.24;75.48;100174.91;3165200;28;19932;-78
2023/09/07 04:24:08;;;;;;;;;;;;;;;20.24;75.41;100172.28;3161437;28;19940;-78
2023/09/07 04:25:41;;;;;;;;;;;;;;;20.25;75.46;100181.03;3162358;28;19928;-78
2023/09/07 04:27:11;;;;;;;;;;;;;;;20.27;75.26;100176.47;3165026;28;19927;-79
2023/09/07 04:28:43;;;;;;;;;;;;;;;20.29;75.39;100171.88;3156902;28;19969;-77
2023/09/07 04:30:14;;;;;;;;;;;;;;;20.29;75.25;100172.75;3165427;28;19928;-77
2023/09/07 04:31:45;;;;;;;;;;;;;;;20.31;75.45;100175.25;3164979;28;20112;-77
2023/09/07 04:33:19;;;;;;;;;;;;;;;20.33;75.15;100176.81;3165297;28;19928;-80
2023/09/07 04:34:53;;;;;;;;;;;;;;;20.33;75.36;100173.34;3165450;28;19929;-75
2023/09/07 04:36:24;;;;;;;;;;;;;;;20.31;75.46;100170.81;3153704;28;20428;-77
2023/09/07 04:37:55;;;;;;;;;;;;;;;20.32;75.43;100175.16;3160053;28;19928;-78
2023/09/07 04:39:26;;;;;;;;;;;;;;;20.36;75.23;100183.66;3166177;28;19934;-77
2023/09/07 04:41:07;;;;;;;;;;;;;;;20.38;75.20;100182.59;3165153;28;20384;-75
2023/09/07 04:42:38;;;;;;;;;;;;;;;20.42;75.12;100191.13;3166149;28;19942;-73
2023/09/07 04:44:10;;;;;;;;;;;;;;;20.45;75.21;100185.56;3165449;28;20000;-78
2023/09/07 04:45:45;;;;;;;;;;;;;;;20.50;75.08;100190.47;3165554;28;19980;-73
2023/09/07 04:47:17;;;;;;;;;;;;;;;20.53;74.80;100190.28;3164750;28;19970;-73
2023/09/07 04:48:48;;;;;;;;;;;;;;;20.57;74.87;100197.00;3164975;28;19931;-83
2023/09/07 04:50:26;;;;;;;;;;;;;;;20.58;74.73;100199.50;3157500;28;19990;-81
2023/09/07 04:51:57;;;;;;;;;;;;;;;20.60;74.97;100192.31;3153838;28;20004;-79
2023/09/07 04:53:47;;;;;;;;;;;;;;;20.61;75.04;100193.97;3153245;28;19932;-78
2023/09/07 04:55:19;;;;;;;;;;;;;;;20.65;74.77;100181.38;3164951;28;20001;-75
2023/09/07 04:57:00;;;;;;;;;;;;;;;20.66;74.69;100186.50;3158639;28;20064;-78
2023/09/07 04:58:34;;;;;;;;;;;;;;;20.68;74.54;100184.59;3164742;28;19927;-73
2023/09/07 05:00:07;;;;;;;;;;;;;;;20.70;74.75;100191.56;3164823;28;20063;-72
2023/09/07 05:01:38;;;;;;;;;;;;;;;20.66;74.88;100197.09;3142675;28;20349;-73
2023/09/07 05:03:10;;;;;;;;;;;;;;;20.64;74.64;100199.03;3164655;28;19975;-79
2023/09/07 05:04:40;;;;;;;;;;;;;;;20.63;74.87;100200.00;3165146;28;19928;-69
2023/09/07 05:06:12;;;;;;;;;;;;;;;20.63;74.88;100207.09;3153429;28;20045;-75
2023/09/07 05:07:43;;;;;;;;;;;;;;;20.58;75.48;100201.34;3161110;28;20529;-72
2023/09/07 05:09:15;;;;;;;;;;;;;;;20.53;75.53;100201.72;3159993;28;19963;-71
2023/09/07 05:10:45;;;;;;;;;;;;;;;20.50;75.86;100196.63;3161461;28;20738;-73
2023/09/07 05:12:19;;;;;;;;;;;;;;;20.51;75.97;100193.03;3164465;28;19934;-73
2023/09/07 05:13:50;;;;;;;;;;;;;;;20.53;75.69;100199.06;3155393;28;20423;-77
2023/09/07 05:15:21;;;;;;;;;;;;;;;20.54;75.78;100198.09;3150580;28;19987;-74
2023/09/07 05:16:52;;;;;;;;;;;;;;;20.53;75.68;100196.44;3155617;28;19927;-74
2023/09/07 05:18:24;;;;;;;;;;;;;;;20.52;75.73;100201.78;3164913;28;20044;-76
2023/09/07 05:19:55;;;;;;;;;;;;;;;20.50;75.79;100199.28;3164131;28;19928;-73
2023/09/07 05:21:26;;;;;;;;;;;;;;;20.52;75.99;100202.66;3152850;28;19984;-73
2023/09/07 05:22:59;;;;;;;;;;;;;;;20.54;75.98;100200.75;3157018;28;19928;-72
2023/09/07 05:24:30;;;;;;;;;;;;;;;20.57;75.60;100202.31;3164864;28;19934;-73
2023/09/07 05:26:04;;;;;;;;;;;;;;;20.61;75.49;100204.56;3164525;28;20019;-73
2023/09/07 05:27:46;;;;;;;;;;;;;;;20.62;75.39;100203.63;3164892;28;19932;-74
2023/09/07 05:29:17;;;;;;;;;;;;;;;20.66;75.31;100199.75;3164443;28;19927;-75
2023/09/07 05:30:49;;;;;;;;;;;;;;;20.71;75.42;100211.78;3164692;28;20065;-74
2023/09/07 05:32:20;;;;;;;;;;;;;;;20.79;75.21;100194.28;3164822;28;19928;-71
2023/09/07 05:33:51;;;;;;;;;;;;;;;20.85;75.35;100195.59;3164577;28;19928;-73
2023/09/07 05:35:27;;;;;;;;;;;;;;;20.90;75.19;100199.56;3159893;28;19928;-72
2023/09/07 05:36:58;;;;;;;;;;;;;;;20.96;75.36;100192.91;3152933;28;19942;-71
2023/09/07 05:38:29;;;;;;;;;;;;;;;21.02;75.18;100192.41;3158313;28;19928;-73
2023/09/07 05:40:00;;;;;;;;;;;;;;;21.09;75.16;100200.72;3166915;28;19939;-77
2023/09/07 05:41:32;;;;;;;;;;;;;;;21.14;75.12;100191.38;3166753;28;20029;-74
2023/09/07 05:43:04;;;;;;;;;;;;;;;21.18;74.63;100192.00;3167122;28;20018;-81
2023/09/07 05:44:36;;;;;;;;;;;;;;;21.20;74.84;100190.03;3167247;28;19928;-79
2023/09/07 05:46:07;;;;;;;;;;;;;;;21.23;74.93;100194.25;3167240;28;20033;-77
2023/09/07 05:47:39;;;;;;;;;;;;;;;21.23;74.76;100194.25;3167380;28;19950;-77
2023/09/07 05:49:12;;;;;;;;;;;;;;;21.27;74.93;100190.38;3167195;28;19928;-81
2023/09/07 05:50:44;;;;;;;;;;;;;;;21.35;74.88;100188.78;3156896;28;19928;-78
2023/09/07 05:52:15;;;;;;;;;;;;;;;21.49;74.26;100184.97;3163560;28;19931;-82
2023/09/07 05:53:46;;;;;;;;;;;;;;;21.67;74.37;100184.38;3163992;28;20480;-78
2023/09/07 05:55:17;;;;;;;;;;;;;;;21.84;74.07;100185.59;3165744;28;19928;-71
2023/09/07 05:56:49;;;;;;;;;;;;;;;21.95;73.81;100190.81;3162213;28;19939;-76
2023/09/07 05:58:21;;;;;;;;;;;;;;;22.06;73.35;100190.69;3167002;28;19931;-74
2023/09/07 05:59:57;;;;;;;;;;;;;;;22.13;73.48;100189.22;3167243;28;20296;-75
2023/09/07 06:01:29;;;;;;;;;;;;;;;22.19;73.58;100191.34;3157744;28;19982;-74
2023/09/07 06:02:59;;;;;;;;;;;;;;;22.34;73.34;100189.16;3166684;28;19949;-70
2023/09/07 06:04:31;;;;;;;;;;;;;;;22.51;72.84;100186.81;3166866;28;19928;-72
2023/09/07 06:06:09;;;;;;;;;;;;;;;22.59;72.52;100192.28;3157998;28;19931;-75
2023/09/07 06:07:39;;;;;;;;;;;;;;;22.72;72.18;100192.88;3157523;28;19927;-72
2023/09/07 06:09:11;;;;;;;;;;;;;;;22.88;72.19;100189.66;3164690;28;19987;-69
2023/09/07 06:10:42;;;;;;;;;;;;;;;23.05;71.35;100194.31;3156199;28;19935;-69
2023/09/07 06:12:14;;;;;;;;;;;;;;;23.21;71.22;100195.56;3166800;28;20418;-71
2023/09/07 06:13:47;;;;;;;;;;;;;;;23.35;70.76;100192.47;3157977;28;19989;-72
2023/09/07 06:15:19;;;;;;;;;;;;;;;23.41;70.17;100199.88;3166473;28;19947;-71
2023/09/07 06:16:49;;;;;;;;;;;;;;;23.51;70.28;100202.53;3141232;28;20730;-73
2023/09/07 06:18:21;;;;;;;;;;;;;;;23.59;69.27;100197.34;3153902;28;19939;-75
2023/09/07 06:19:51;;;;;;;;;;;;;;;23.64;69.33;100197.75;3164944;28;19927;-79
2023/09/07 06:21:23;;;;;;;;;;;;;;;23.70;68.75;100207.84;3162860;28;19981;-73
2023/09/07 06:22:54;;;;;;;;;;;;;;;23.77;69.00;100203.63;3156848;28;19996;-75
2023/09/07 06:24:26;;;;;;;;;;;;;;;23.75;68.49;100205.59;3166341;28;19939;-75
2023/09/07 06:25:56;;;;;;;;;;;;;;;23.75;68.68;100205.59;3165989;28;19928;-72
2023/09/07 06:27:28;;;;;;;;;;;;;;;23.72;68.67;100205.03;3160944;28;19982;-73
2023/09/07 06:29:00;;;;;;;;;;;;;;;23.71;68.34;100206.84;3160067;28;19938;-72
2023/09/07 06:30:31;;;;;;;;;;;;;;;23.70;68.65;100202.53;3166308;28;19934;-71
2023/09/07 06:32:02;;;;;;;;;;;;;;;23.72;68.36;100208.53;3161267;28;20414;-75
2023/09/07 06:33:34;;;;;;;;;;;;;;;23.76;68.34;100206.44;3157930;28;20000;-74
2023/09/07 06:35:05;;;;;;;;;;;;;;;23.79;68.27;100212.28;3164988;28;20008;-74
2023/09/07 06:36:37;;;;;;;;;;;;;;;23.86;67.96;100209.06;3156202;28;20267;-73
2023/09/07 06:38:09;;;;;;;;;;;;;;;23.93;68.08;100213.66;3145066;28;19961;-73
2023/09/07 06:39:42;;;;;;;;;;;;;;;24.04;67.59;100207.31;3166708;28;20404;-73
2023/09/07 06:41:14;;;;;;;;;;;;;;;24.12;67.26;100207.41;3166677;28;19931;-72
2023/09/07 06:42:44;;;;;;;;;;;;;;;24.20;67.12;100212.84;3162502;28;19931;-71
2023/09/07 06:44:18;;;;;;;;;;;;;;;24.29;67.25;100209.28;3141523;28;19967;-71
2023/09/07 06:45:48;;;;;;;;;;;;;;;24.29;66.71;100203.97;3165275;28;19935;-72
2023/09/07 06:47:20;;;;;;;;;;;;;;;24.25;66.64;100210.59;3165844;28;20634;-71
2023/09/07 06:48:52;;;;;;;;;;;;;;;24.32;66.90;100212.66;3157950;28;20404;-71
2023/09/07 06:50:23;;;;;;;;;;;;;;;24.35;66.72;100207.88;3159246;28;19928;-71
2023/09/07 06:51:54;;;;;;;;;;;;;;;24.41;66.78;100206.44;3162392;28;20332;-72
2023/09/07 06:53:25;;;;;;;;;;;;;;;24.47;66.63;100212.03;3162264;28;20034;-70
2023/09/07 06:54:57;;;;;;;;;;;;;;;24.47;65.77;100217.34;3165159;28;19928;-74
2023/09/07 06:56:28;;;;;;;;;;;;;;;24.34;65.58;100216.81;3166221;28;19934;-75
2023/09/07 06:58:01;;;;;;;;;;;;;;;24.33;65.93;100214.31;3154758;28;19928;-71
2023/09/07 06:59:33;;;;;;;;;;;;;;;24.40;66.34;100218.06;3157294;28;20445;-74
2023/09/07 07:01:06;;;;;;;;;;;;;;;24.54;66.34;100222.09;3157970;28;19931;-74
2023/09/07 07:02:36;;;;;;;;;;;;;;;24.67;66.05;100214.59;3161227;28;19975;-76
2023/09/07 07:04:09;;;;;;;;;;;;;;;24.90;65.89;100215.81;3166257;28;19935;-78
2023/09/07 07:05:42;;;;;;;;;;;;;;;25.17;65.33;100208.75;3161656;28;20664;-72
2023/09/07 07:07:15;;;;;;;;;;;;;;;25.40;64.78;100204.59;3156864;28;19993;-81
2023/09/07 07:08:47;;;;;;;;;;;;;;;25.60;64.29;100209.75;3163819;28;19976;-85
2023/09/07 07:10:18;;;;;;;;;;;;;;;25.81;63.49;100206.72;3163346;28;19932;-80
2023/09/07 07:11:50;;;;;;;;;;;;;;;25.93;62.89;100213.47;3163848;28;19928;-79
2023/09/07 07:13:21;;;;;;;;;;;;;;;25.91;62.32;100202.16;3155443;28;20224;-79
2023/09/07 07:14:55;;;;;;;;;;;;;;;25.85;62.37;100208.09;3158672;28;19982;-75
2023/09/07 07:16:25;;;;;;;;;;;;;;;25.77;61.96;100203.53;3158475;28;20293;-78
2023/09/07 07:17:57;;;;;;;;;;;;;;;25.74;62.21;100205.69;3160627;28;20011;-79
2023/09/07 07:19:28;;;;;;;;;;;;;;;25.72;61.89;100203.16;3161620;28;19993;-83
2023/09/07 07:20:59;;;;;;;;;;;;;;;25.59;62.36;100200.09;3158350;28;20045;-71
2023/09/07 07:22:32;;;;;;;;;;;;;;;25.49;62.19;100202.00;3165023;28;19928;-72
2023/09/07 07:24:06;;;;;;;;;;;;;;;25.34;62.49;100199.06;3160891;28;19935;-73
2023/09/07 07:25:36;;;;;;;;;;;;;;;25.30;62.65;100203.03;3158907;28;20313;-71
2023/09/07 07:27:08;;;;;;;;;;;;;;;25.28;62.60;100205.84;3158189;28;19927;-71
2023/09/07 07:28:39;;;;;;;;;;;;;;;25.29;62.59;100210.22;3160609;28;20709;-74
2023/09/07 07:30:12;;;;;;;;;;;;;;;25.26;62.41;100212.31;3164612;28;19980;-71
2023/09/07 07:31:43;;;;;;;;;;;;;;;25.29;62.53;100218.22;3165465;28;19927;-70
2023/09/07 07:33:14;;;;;;;;;;;;;;;25.37;62.54;100210.25;3163584;28;19943;-72
2023/09/07 07:34:45;;;;;;;;;;;;;;;25.47;61.84;100215.50;3156905;28;19942;-68
2023/09/07 07:36:17;;;;;;;;;;;;;;;25.53;61.57;100216.72;3153038;28;20523;-72
2023/09/07 07:37:48;;;;;;;;;;;;;;;25.55;61.69;100214.72;3161267;28;19934;-73
2023/09/07 07:39:20;;;;;;;;;;;;;;;25.61;61.57;100208.75;3154012;28;19932;-77
2023/09/07 07:40:52;;;;;;;;;;;;;;;25.94;61.62;100211.66;3161231;28;19927;-75
2023/09/07 07:42:24;;;;;;;;;;;;;;;26.22;60.62;100220.31;3162199;28;19938;-75
2023/09/07 07:43:55;;;;;;;;;;;;;;;26.39;60.03;100224.72;3152771;28;19927;-76
2023/09/07 07:45:28;;;;;;;;;;;;;;;26.43;59.59;100219.88;3158801;28;20825;-74
2023/09/07 07:46:58;;;;;;;;;;;;;;;26.45;58.96;100228.59;3165526;28;19927;-74
2023/09/07 07:48:30;;;;;;;;;;;;;;;26.68;59.06;100220.81;3165919;28;20064;-77
2023/09/07 07:50:01;;;;;;;;;;;;;;;26.96;58.68;100219.53;3164418;28;20230;-73
2023/09/07 07:51:33;;;;;;;;;;;;;;;27.14;57.95;100218.56;3158446;28;19927;-76